sensor_id;sensor_type;location;lat;lon;timestamp;temperature;humidity
23405;DHT22;11875;49.356;2.718;2022-09-09T00:02:22;17.80;99.90
23405;DHT22;11875;49.356;2.718;2022-09-09T00:05:02;17.80;99.90
23405;DHT22;11875;49.356;2.718;2022-09-09T00:13:19;17.70;99.90
23405;DHT22;11875;49.356;2.718;2022-09-09T00:15:59;17.70;99.90
23405;DHT22;11875;49.356;2.718;2022-09-09T00:21:14;17.70;99.90
23405;DHT22;11875;49.356;2.718;2022-09-09T00:23:55;17.70;99.90
23405;DHT22;11875;49.356;2.718;2022-09-09T00:26:38;17.50;99.90
23405;DHT22;11875;49.356;2.718;2022-09-09T00:31:45;17.50;99.90
23405;DHT22;11875;49.356;2.718;2022-09-09T00:34:14;17.50;99.90
23405;DHT22;11875;49.356;2.718;2022-09-09T00:36:41;17.50;99.90
23405;DHT22;11875;49.356;2.718;2022-09-09T00:39:23;17.50;99.90
23405;DHT22;11875;49.356;2.718;2022-09-09T00:44:59;17.40;99.90
23405;DHT22;11875;49.356;2.718;2022-09-09T00:47:45;17.40;99.90
23405;DHT22;11875;49.356;2.718;2022-09-09T00:58:20;17.30;99.90
23405;DHT22;11875;49.356;2.718;2022-09-09T01:00:51;17.30;99.90
23405;DHT22;11875;49.356;2.718;2022-09-09T01:11:49;17.10;99.90
23405;DHT22;11875;49.356;2.718;2022-09-09T01:17:26;17.30;99.90
23405;DHT22;11875;49.356;2.718;2022-09-09T01:20:13;17.30;99.90
23405;DHT22;11875;49.356;2.718;2022-09-09T01:23:04;17.30;99.90
23405;DHT22;11875;49.356;2.718;2022-09-09T01:28:27;17.30;99.90
23405;DHT22;11875;49.356;2.718;2022-09-09T01:30:54;17.10;99.90
23405;DHT22;11875;49.356;2.718;2022-09-09T01:33:20;17.10;99.90
23405;DHT22;11875;49.356;2.718;2022-09-09T01:35:54;17.10;99.90
23405;DHT22;11875;49.356;2.718;2022-09-09T01:38:22;17.00;99.90
23405;DHT22;11875;49.356;2.718;2022-09-09T01:40:49;17.00;99.90
23405;DHT22;11875;49.356;2.718;2022-09-09T01:43:21;16.90;99.90
23405;DHT22;11875;49.356;2.718;2022-09-09T01:45:49;17.00;99.90
23405;DHT22;11875;49.356;2.718;2022-09-09T01:48:17;17.20;99.90
23405;DHT22;11875;49.356;2.718;2022-09-09T01:50:43;17.10;99.90
23405;DHT22;11875;49.356;2.718;2022-09-09T01:53:09;17.20;99.90
23405;DHT22;11875;49.356;2.718;2022-09-09T01:55:39;17.10;99.90
23405;DHT22;11875;49.356;2.718;2022-09-09T01:58:09;17.10;99.90
23405;DHT22;11875;49.356;2.718;2022-09-09T02:00:45;17.00;99.90
23405;DHT22;11875;49.356;2.718;2022-09-09T02:03:26;17.00;99.90
23405;DHT22;11875;49.356;2.718;2022-09-09T02:08:40;16.90;99.90
23405;DHT22;11875;49.356;2.718;2022-09-09T02:11:15;16.90;99.90
23405;DHT22;11875;49.356;2.718;2022-09-09T02:13:43;16.90;99.90
23405;DHT22;11875;49.356;2.718;2022-09-09T02:16:23;16.80;99.90
23405;DHT22;11875;49.356;2.718;2022-09-09T02:19:02;16.80;99.90
23405;DHT22;11875;49.356;2.718;2022-09-09T02:21:32;16.80;99.90
23405;DHT22;11875;49.356;2.718;2022-09-09T02:24:03;16.80;99.90
23405;DHT22;11875;49.356;2.718;2022-09-09T02:26:31;16.80;99.90
23405;DHT22;11875;49.356;2.718;2022-09-09T02:29:01;16.80;99.90
23405;DHT22;11875;49.356;2.718;2022-09-09T02:31:27;16.90;99.90
23405;DHT22;11875;49.356;2.718;2022-09-09T02:33:59;16.80;99.90
23405;DHT22;11875;49.356;2.718;2022-09-09T02:36:28;16.90;99.90
23405;DHT22;11875;49.356;2.718;2022-09-09T02:38:55;16.90;99.90
23405;DHT22;11875;49.356;2.718;2022-09-09T02:41:30;16.80;99.90
23405;DHT22;11875;49.356;2.718;2022-09-09T02:43:56;16.90;99.90
23405;DHT22;11875;49.356;2.718;2022-09-09T02:49:03;16.90;99.90
23405;DHT22;11875;49.356;2.718;2022-09-09T02:56:54;16.60;99.90
23405;DHT22;11875;49.356;2.718;2022-09-09T02:59:21;16.50;99.90
23405;DHT22;11875;49.356;2.718;2022-09-09T03:01:47;16.50;99.90
23405;DHT22;11875;49.356;2.718;2022-09-09T03:04:13;16.50;99.90
23405;DHT22;11875;49.356;2.718;2022-09-09T03:06:39;16.50;99.90
23405;DHT22;11875;49.356;2.718;2022-09-09T03:09:05;16.50;99.90
23405;DHT22;11875;49.356;2.718;2022-09-09T03:11:31;16.50;99.90
23405;DHT22;11875;49.356;2.718;2022-09-09T03:13:56;16.50;99.90
23405;DHT22;11875;49.356;2.718;2022-09-09T03:16:23;16.50;99.90
23405;DHT22;11875;49.356;2.718;2022-09-09T03:18:48;16.40;99.90
23405;DHT22;11875;49.356;2.718;2022-09-09T03:21:14;16.50;99.90
23405;DHT22;11875;49.356;2.718;2022-09-09T03:23:40;16.40;99.90
23405;DHT22;11875;49.356;2.718;2022-09-09T03:26:06;16.40;99.90
23405;DHT22;11875;49.356;2.718;2022-09-09T03:28:32;16.40;99.90
23405;DHT22;11875;49.356;2.718;2022-09-09T03:31:02;16.40;99.90
23405;DHT22;11875;49.356;2.718;2022-09-09T03:33:27;16.40;99.90
23405;DHT22;11875;49.356;2.718;2022-09-09T03:35:55;16.50;99.90
23405;DHT22;11875;49.356;2.718;2022-09-09T03:38:23;16.50;99.90
23405;DHT22;11875;49.356;2.718;2022-09-09T03:40:53;16.40;99.90
23405;DHT22;11875;49.356;2.718;2022-09-09T03:43:21;16.40;99.90
23405;DHT22;11875;49.356;2.718;2022-09-09T03:45:47;16.50;99.90
23405;DHT22;11875;49.356;2.718;2022-09-09T03:48:14;16.40;99.90
23405;DHT22;11875;49.356;2.718;2022-09-09T03:50:48;16.40;99.90
23405;DHT22;11875;49.356;2.718;2022-09-09T03:53:15;16.50;99.90
23405;DHT22;11875;49.356;2.718;2022-09-09T03:55:49;16.50;99.90
23405;DHT22;11875;49.356;2.718;2022-09-09T03:58:16;16.50;99.90
23405;DHT22;11875;49.356;2.718;2022-09-09T04:00:59;16.60;99.90
23405;DHT22;11875;49.356;2.718;2022-09-09T04:03:25;16.60;99.90
23405;DHT22;11875;49.356;2.718;2022-09-09T04:05:52;16.60;99.90
23405;DHT22;11875;49.356;2.718;2022-09-09T04:08:21;16.60;99.90
23405;DHT22;11875;49.356;2.718;2022-09-09T04:10:48;16.50;99.90
23405;DHT22;11875;49.356;2.718;2022-09-09T04:13:15;16.40;99.90
23405;DHT22;11875;49.356;2.718;2022-09-09T04:15:44;16.40;99.90
23405;DHT22;11875;49.356;2.718;2022-09-09T04:18:15;16.30;99.90
23405;DHT22;11875;49.356;2.718;2022-09-09T04:20:40;16.30;99.90
23405;DHT22;11875;49.356;2.718;2022-09-09T04:23:06;16.30;99.90
23405;DHT22;11875;49.356;2.718;2022-09-09T04:25:31;16.30;99.90
23405;DHT22;11875;49.356;2.718;2022-09-09T04:27:58;16.40;99.90
23405;DHT22;11875;49.356;2.718;2022-09-09T04:30:24;16.50;99.90
23405;DHT22;11875;49.356;2.718;2022-09-09T04:32:51;16.50;99.90
23405;DHT22;11875;49.356;2.718;2022-09-09T04:35:16;16.50;99.90
23405;DHT22;11875;49.356;2.718;2022-09-09T04:37:42;16.50;99.90
23405;DHT22;11875;49.356;2.718;2022-09-09T04:40:08;16.50;99.90
23405;DHT22;11875;49.356;2.718;2022-09-09T04:42:37;16.40;99.90
23405;DHT22;11875;49.356;2.718;2022-09-09T04:45:04;16.40;99.90
23405;DHT22;11875;49.356;2.718;2022-09-09T04:47:30;16.50;99.90
23405;DHT22;11875;49.356;2.718;2022-09-09T04:49:55;16.40;99.90
23405;DHT22;11875;49.356;2.718;2022-09-09T04:52:21;16.50;99.90
23405;DHT22;11875;49.356;2.718;2022-09-09T04:54:47;16.50;99.90
23405;DHT22;11875;49.356;2.718;2022-09-09T04:57:13;16.50;99.90
23405;DHT22;11875;49.356;2.718;2022-09-09T04:59:39;16.50;99.90
23405;DHT22;11875;49.356;2.718;2022-09-09T05:02:05;16.50;99.90
23405;DHT22;11875;49.356;2.718;2022-09-09T05:04:31;16.60;99.90
23405;DHT22;11875;49.356;2.718;2022-09-09T05:06:56;16.70;99.90
23405;DHT22;11875;49.356;2.718;2022-09-09T05:09:22;16.80;99.90
23405;DHT22;11875;49.356;2.718;2022-09-09T05:11:48;16.80;99.90
23405;DHT22;11875;49.356;2.718;2022-09-09T05:14:14;16.70;99.90
23405;DHT22;11875;49.356;2.718;2022-09-09T05:16:40;16.70;99.90
23405;DHT22;11875;49.356;2.718;2022-09-09T05:19:06;16.70;99.90
23405;DHT22;11875;49.356;2.718;2022-09-09T05:21:33;16.60;99.90
23405;DHT22;11875;49.356;2.718;2022-09-09T05:23:59;16.70;99.90
23405;DHT22;11875;49.356;2.718;2022-09-09T05:26:26;16.70;99.90
23405;DHT22;11875;49.356;2.718;2022-09-09T05:28:52;16.80;99.90
23405;DHT22;11875;49.356;2.718;2022-09-09T05:31:18;16.80;99.90
23405;DHT22;11875;49.356;2.718;2022-09-09T05:33:45;16.80;99.90
23405;DHT22;11875;49.356;2.718;2022-09-09T05:36:16;16.80;99.90
23405;DHT22;11875;49.356;2.718;2022-09-09T05:38:43;16.90;99.90
23405;DHT22;11875;49.356;2.718;2022-09-09T05:41:09;16.90;99.90
23405;DHT22;11875;49.356;2.718;2022-09-09T05:43:37;16.90;99.90
23405;DHT22;11875;49.356;2.718;2022-09-09T05:48:41;16.80;99.90
23405;DHT22;11875;49.356;2.718;2022-09-09T05:51:09;16.80;99.90
23405;DHT22;11875;49.356;2.718;2022-09-09T05:53:38;16.80;99.90
23405;DHT22;11875;49.356;2.718;2022-09-09T05:56:09;16.80;99.90
23405;DHT22;11875;49.356;2.718;2022-09-09T05:58:40;16.80;99.90
23405;DHT22;11875;49.356;2.718;2022-09-09T06:01:06;16.80;99.90
23405;DHT22;11875;49.356;2.718;2022-09-09T06:03:33;16.90;99.90
23405;DHT22;11875;49.356;2.718;2022-09-09T06:06:05;16.90;99.90
23405;DHT22;11875;49.356;2.718;2022-09-09T06:08:32;16.90;99.90
23405;DHT22;11875;49.356;2.718;2022-09-09T06:11:03;16.80;99.90
23405;DHT22;11875;49.356;2.718;2022-09-09T06:13:29;16.80;99.90
23405;DHT22;11875;49.356;2.718;2022-09-09T06:15:55;16.70;99.90
23405;DHT22;11875;49.356;2.718;2022-09-09T06:18:21;16.70;99.90
23405;DHT22;11875;49.356;2.718;2022-09-09T06:21:00;16.70;99.90
23405;DHT22;11875;49.356;2.718;2022-09-09T06:23:27;16.70;99.90
23405;DHT22;11875;49.356;2.718;2022-09-09T06:26:09;16.70;99.90
23405;DHT22;11875;49.356;2.718;2022-09-09T06:28:35;16.70;99.90
23405;DHT22;11875;49.356;2.718;2022-09-09T06:31:03;16.80;99.90
23405;DHT22;11875;49.356;2.718;2022-09-09T06:33:37;16.80;99.90
23405;DHT22;11875;49.356;2.718;2022-09-09T06:36:07;16.80;99.90
23405;DHT22;11875;49.356;2.718;2022-09-09T06:38:36;16.80;99.90
23405;DHT22;11875;49.356;2.718;2022-09-09T06:41:02;16.80;99.90
23405;DHT22;11875;49.356;2.718;2022-09-09T06:43:28;16.80;99.90
23405;DHT22;11875;49.356;2.718;2022-09-09T06:46:02;16.80;99.90
23405;DHT22;11875;49.356;2.718;2022-09-09T06:48:28;16.80;99.90
23405;DHT22;11875;49.356;2.718;2022-09-09T06:51:04;16.80;99.90
23405;DHT22;11875;49.356;2.718;2022-09-09T06:53:30;16.70;99.90
23405;DHT22;11875;49.356;2.718;2022-09-09T06:56:41;16.80;99.90
23405;DHT22;11875;49.356;2.718;2022-09-09T06:58:49;16.70;99.90
23405;DHT22;11875;49.356;2.718;2022-09-09T07:01:17;16.70;99.90
23405;DHT22;11875;49.356;2.718;2022-09-09T07:03:49;16.80;99.90
23405;DHT22;11875;49.356;2.718;2022-09-09T07:06:21;16.80;99.90
23405;DHT22;11875;49.356;2.718;2022-09-09T07:08:56;16.90;99.90
23405;DHT22;11875;49.356;2.718;2022-09-09T07:11:25;16.90;99.90
23405;DHT22;11875;49.356;2.718;2022-09-09T07:13:53;17.00;99.90
23405;DHT22;11875;49.356;2.718;2022-09-09T07:16:20;17.00;99.90
23405;DHT22;11875;49.356;2.718;2022-09-09T07:18:46;17.20;99.90
23405;DHT22;11875;49.356;2.718;2022-09-09T07:21:14;17.10;99.90
23405;DHT22;11875;49.356;2.718;2022-09-09T07:23:40;17.10;99.90
23405;DHT22;11875;49.356;2.718;2022-09-09T07:26:10;17.00;99.90
23405;DHT22;11875;49.356;2.718;2022-09-09T07:28:36;17.00;99.90
23405;DHT22;11875;49.356;2.718;2022-09-09T07:31:03;17.10;99.90
23405;DHT22;11875;49.356;2.718;2022-09-09T07:33:31;17.20;99.90
23405;DHT22;11875;49.356;2.718;2022-09-09T07:36:24;17.10;99.90
23405;DHT22;11875;49.356;2.718;2022-09-09T07:39:11;17.20;99.90
23405;DHT22;11875;49.356;2.718;2022-09-09T07:41:46;17.20;99.90
23405;DHT22;11875;49.356;2.718;2022-09-09T07:44:17;17.30;99.90
23405;DHT22;11875;49.356;2.718;2022-09-09T07:46:44;17.30;99.90
23405;DHT22;11875;49.356;2.718;2022-09-09T07:49:12;17.30;99.90
23405;DHT22;11875;49.356;2.718;2022-09-09T07:51:40;17.30;99.90
23405;DHT22;11875;49.356;2.718;2022-09-09T07:54:08;17.20;99.90
23405;DHT22;11875;49.356;2.718;2022-09-09T07:56:35;17.20;99.90
23405;DHT22;11875;49.356;2.718;2022-09-09T07:59:01;17.20;99.90
23405;DHT22;11875;49.356;2.718;2022-09-09T08:01:28;17.20;99.90
23405;DHT22;11875;49.356;2.718;2022-09-09T08:03:56;17.20;99.90
23405;DHT22;11875;49.356;2.718;2022-09-09T08:06:25;17.10;99.90
23405;DHT22;11875;49.356;2.718;2022-09-09T08:08:52;17.10;99.90
23405;DHT22;11875;49.356;2.718;2022-09-09T08:11:19;17.20;99.90
23405;DHT22;11875;49.356;2.718;2022-09-09T08:13:45;17.30;99.90
23405;DHT22;11875;49.356;2.718;2022-09-09T08:16:13;17.40;99.90
23405;DHT22;11875;49.356;2.718;2022-09-09T08:18:40;17.60;99.90
23405;DHT22;11875;49.356;2.718;2022-09-09T08:21:13;17.60;99.90
23405;DHT22;11875;49.356;2.718;2022-09-09T08:23:41;17.70;99.90
23405;DHT22;11875;49.356;2.718;2022-09-09T08:26:17;17.70;99.90
23405;DHT22;11875;49.356;2.718;2022-09-09T08:28:48;17.70;99.90
23405;DHT22;11875;49.356;2.718;2022-09-09T08:31:18;17.70;99.90
23405;DHT22;11875;49.356;2.718;2022-09-09T08:33:44;17.70;99.90
23405;DHT22;11875;49.356;2.718;2022-09-09T08:36:21;17.70;99.90
23405;DHT22;11875;49.356;2.718;2022-09-09T08:38:48;17.80;99.90
23405;DHT22;11875;49.356;2.718;2022-09-09T08:51:57;17.80;99.90
23405;DHT22;11875;49.356;2.718;2022-09-09T08:54:23;17.90;99.90
23405;DHT22;11875;49.356;2.718;2022-09-09T08:56:50;18.00;99.90
23405;DHT22;11875;49.356;2.718;2022-09-09T08:59:18;18.00;99.90
23405;DHT22;11875;49.356;2.718;2022-09-09T09:01:55;18.00;99.90
23405;DHT22;11875;49.356;2.718;2022-09-09T09:07:15;17.90;99.90
23405;DHT22;11875;49.356;2.718;2022-09-09T09:12:29;18.10;99.90
23405;DHT22;11875;49.356;2.718;2022-09-09T09:14:56;18.10;99.90
23405;DHT22;11875;49.356;2.718;2022-09-09T09:17:26;18.20;99.90
23405;DHT22;11875;49.356;2.718;2022-09-09T09:19:53;18.30;99.90
23405;DHT22;11875;49.356;2.718;2022-09-09T09:22:23;18.20;99.90
23405;DHT22;11875;49.356;2.718;2022-09-09T09:24:56;18.30;99.90
23405;DHT22;11875;49.356;2.718;2022-09-09T09:30:19;18.40;99.90
23405;DHT22;11875;49.356;2.718;2022-09-09T09:33:03;18.40;99.90
23405;DHT22;11875;49.356;2.718;2022-09-09T09:35:30;18.30;99.90
23405;DHT22;11875;49.356;2.718;2022-09-09T09:37:56;18.40;99.90
23405;DHT22;11875;49.356;2.718;2022-09-09T09:40:22;18.50;99.90
23405;DHT22;11875;49.356;2.718;2022-09-09T09:42:53;18.60;99.90
23405;DHT22;11875;49.356;2.718;2022-09-09T09:45:35;18.70;99.90
23405;DHT22;11875;49.356;2.718;2022-09-09T09:48:08;18.90;99.90
23405;DHT22;11875;49.356;2.718;2022-09-09T09:50:34;19.00;99.90
23405;DHT22;11875;49.356;2.718;2022-09-09T09:53:02;19.20;99.90
23405;DHT22;11875;49.356;2.718;2022-09-09T09:55:30;19.40;99.90
23405;DHT22;11875;49.356;2.718;2022-09-09T09:58:06;19.50;99.90
23405;DHT22;11875;49.356;2.718;2022-09-09T10:00:33;19.70;99.90
23405;DHT22;11875;49.356;2.718;2022-09-09T10:03:01;19.80;99.90
23405;DHT22;11875;49.356;2.718;2022-09-09T10:05:45;19.80;99.90
23405;DHT22;11875;49.356;2.718;2022-09-09T10:08:14;19.90;99.90
23405;DHT22;11875;49.356;2.718;2022-09-09T10:19:10;20.10;99.90
23405;DHT22;11875;49.356;2.718;2022-09-09T10:24:33;20.10;99.90
23405;DHT22;11875;49.356;2.718;2022-09-09T10:33:07;20.20;99.90
23405;DHT22;11875;49.356;2.718;2022-09-09T10:35:35;20.20;99.90
23405;DHT22;11875;49.356;2.718;2022-09-09T10:38:18;20.10;99.90
23405;DHT22;11875;49.356;2.718;2022-09-09T10:43:59;20.20;99.90
23405;DHT22;11875;49.356;2.718;2022-09-09T10:47:00;19.90;99.90
23405;DHT22;11875;49.356;2.718;2022-09-09T10:49:58;19.90;99.90
23405;DHT22;11875;49.356;2.718;2022-09-09T10:52:38;20.00;99.90
23405;DHT22;11875;49.356;2.718;2022-09-09T10:55:20;20.00;99.90
23405;DHT22;11875;49.356;2.718;2022-09-09T10:57:52;20.20;99.90
23405;DHT22;11875;49.356;2.718;2022-09-09T11:03:00;20.50;99.90
23405;DHT22;11875;49.356;2.718;2022-09-09T11:05:38;20.60;99.90
23405;DHT22;11875;49.356;2.718;2022-09-09T11:08:24;20.70;99.90
23405;DHT22;11875;49.356;2.718;2022-09-09T11:13:49;20.90;99.90
23405;DHT22;11875;49.356;2.718;2022-09-09T11:22:04;20.80;99.90
23405;DHT22;11875;49.356;2.718;2022-09-09T11:24:39;20.80;99.90
23405;DHT22;11875;49.356;2.718;2022-09-09T11:33:34;20.70;99.90
23405;DHT22;11875;49.356;2.718;2022-09-09T11:40:45;20.50;99.90
23405;DHT22;11875;49.356;2.718;2022-09-09T11:43:19;20.40;99.90
23405;DHT22;11875;49.356;2.718;2022-09-09T11:45:52;20.30;99.90
23405;DHT22;11875;49.356;2.718;2022-09-09T11:48:31;20.20;99.90
23405;DHT22;11875;49.356;2.718;2022-09-09T11:51:08;20.30;99.90
23405;DHT22;11875;49.356;2.718;2022-09-09T11:53:46;20.40;99.90
23405;DHT22;11875;49.356;2.718;2022-09-09T11:56:13;20.50;99.90
23405;DHT22;11875;49.356;2.718;2022-09-09T11:59:22;20.50;99.90
23405;DHT22;11875;49.356;2.718;2022-09-09T12:02:02;20.50;99.90
23405;DHT22;11875;49.356;2.718;2022-09-09T12:04:30;20.40;99.90
23405;DHT22;11875;49.356;2.718;2022-09-09T12:07:21;20.00;99.90
23405;DHT22;11875;49.356;2.718;2022-09-09T12:10:02;19.70;99.90
23405;DHT22;11875;49.356;2.718;2022-09-09T12:12:37;19.30;99.90
23405;DHT22;11875;49.356;2.718;2022-09-09T12:17:30;19.00;99.90
23405;DHT22;11875;49.356;2.718;2022-09-09T12:20:02;19.00;99.90
23405;DHT22;11875;49.356;2.718;2022-09-09T12:25:26;18.90;99.90
23405;DHT22;11875;49.356;2.718;2022-09-09T12:28:20;18.80;99.90
23405;DHT22;11875;49.356;2.718;2022-09-09T12:33:16;18.90;99.90
23405;DHT22;11875;49.356;2.718;2022-09-09T12:35:43;19.00;99.90
23405;DHT22;11875;49.356;2.718;2022-09-09T12:38:15;19.00;99.90
23405;DHT22;11875;49.356;2.718;2022-09-09T12:40:54;19.00;99.90
23405;DHT22;11875;49.356;2.718;2022-09-09T12:43:22;19.10;99.90
23405;DHT22;11875;49.356;2.718;2022-09-09T12:45:50;19.10;99.90
23405;DHT22;11875;49.356;2.718;2022-09-09T12:48:26;19.00;99.90
23405;DHT22;11875;49.356;2.718;2022-09-09T12:50:53;19.00;99.90
23405;DHT22;11875;49.356;2.718;2022-09-09T12:53:34;19.10;99.90
23405;DHT22;11875;49.356;2.718;2022-09-09T12:56:04;19.10;99.90
23405;DHT22;11875;49.356;2.718;2022-09-09T12:58:31;19.10;99.90
23405;DHT22;11875;49.356;2.718;2022-09-09T13:00:59;19.20;99.90
23405;DHT22;11875;49.356;2.718;2022-09-09T13:03:26;19.20;99.90
23405;DHT22;11875;49.356;2.718;2022-09-09T13:05:53;19.40;99.90
23405;DHT22;11875;49.356;2.718;2022-09-09T13:08:18;19.50;99.90
23405;DHT22;11875;49.356;2.718;2022-09-09T13:10:54;19.50;99.90
23405;DHT22;11875;49.356;2.718;2022-09-09T13:13:27;19.70;99.90
23405;DHT22;11875;49.356;2.718;2022-09-09T13:15:57;19.80;99.90
23405;DHT22;11875;49.356;2.718;2022-09-09T13:18:27;20.00;99.90
23405;DHT22;11875;49.356;2.718;2022-09-09T13:20:53;20.10;99.90
23405;DHT22;11875;49.356;2.718;2022-09-09T13:23:21;20.10;99.90
23405;DHT22;11875;49.356;2.718;2022-09-09T13:26:01;20.00;99.90
23405;DHT22;11875;49.356;2.718;2022-09-09T13:28:30;20.00;99.90
23405;DHT22;11875;49.356;2.718;2022-09-09T13:31:19;20.20;99.90
23405;DHT22;11875;49.356;2.718;2022-09-09T13:33:45;20.30;99.90
23405;DHT22;11875;49.356;2.718;2022-09-09T13:36:12;20.50;99.90
23405;DHT22;11875;49.356;2.718;2022-09-09T13:41:22;20.60;99.90
23405;DHT22;11875;49.356;2.718;2022-09-09T13:43:49;20.60;99.90
23405;DHT22;11875;49.356;2.718;2022-09-09T13:46:37;20.60;99.90
23405;DHT22;11875;49.356;2.718;2022-09-09T13:51:40;20.40;99.90
23405;DHT22;11875;49.356;2.718;2022-09-09T13:54:09;20.40;99.90
23405;DHT22;11875;49.356;2.718;2022-09-09T13:56:37;20.30;99.90
23405;DHT22;11875;49.356;2.718;2022-09-09T13:59:05;20.20;99.90
23405;DHT22;11875;49.356;2.718;2022-09-09T14:01:31;20.00;99.90
23405;DHT22;11875;49.356;2.718;2022-09-09T14:03:57;20.00;99.90
23405;DHT22;11875;49.356;2.718;2022-09-09T14:06:22;20.10;99.90
23405;DHT22;11875;49.356;2.718;2022-09-09T14:08:51;20.20;99.90
23405;DHT22;11875;49.356;2.718;2022-09-09T14:11:18;20.30;99.90
23405;DHT22;11875;49.356;2.718;2022-09-09T14:13:44;20.50;99.90
23405;DHT22;11875;49.356;2.718;2022-09-09T14:16:10;20.70;99.90
23405;DHT22;11875;49.356;2.718;2022-09-09T14:18:35;20.80;99.90
23405;DHT22;11875;49.356;2.718;2022-09-09T14:21:03;20.90;99.90
23405;DHT22;11875;49.356;2.718;2022-09-09T14:23:29;20.90;99.90
23405;DHT22;11875;49.356;2.718;2022-09-09T14:25:55;20.90;99.90
23405;DHT22;11875;49.356;2.718;2022-09-09T14:28:21;20.90;99.90
23405;DHT22;11875;49.356;2.718;2022-09-09T14:30:47;21.00;99.90
23405;DHT22;11875;49.356;2.718;2022-09-09T14:33:15;21.20;99.90
23405;DHT22;11875;49.356;2.718;2022-09-09T14:35:41;21.20;99.90
23405;DHT22;11875;49.356;2.718;2022-09-09T14:38:08;21.20;99.90
23405;DHT22;11875;49.356;2.718;2022-09-09T14:40:35;21.40;99.90
23405;DHT22;11875;49.356;2.718;2022-09-09T14:43:01;21.30;99.90
23405;DHT22;11875;49.356;2.718;2022-09-09T14:45:27;21.20;99.90
23405;DHT22;11875;49.356;2.718;2022-09-09T14:47:53;21.20;99.90
23405;DHT22;11875;49.356;2.718;2022-09-09T14:50:20;21.30;99.90
23405;DHT22;11875;49.356;2.718;2022-09-09T14:52:46;21.30;99.90
23405;DHT22;11875;49.356;2.718;2022-09-09T14:55:12;21.30;99.90
23405;DHT22;11875;49.356;2.718;2022-09-09T14:57:38;21.30;99.90
23405;DHT22;11875;49.356;2.718;2022-09-09T15:00:05;21.30;99.90
23405;DHT22;11875;49.356;2.718;2022-09-09T15:02:31;21.40;99.90
23405;DHT22;11875;49.356;2.718;2022-09-09T15:04:57;21.40;99.90
23405;DHT22;11875;49.356;2.718;2022-09-09T15:07:24;21.30;99.90
23405;DHT22;11875;49.356;2.718;2022-09-09T15:09:49;21.10;99.90
23405;DHT22;11875;49.356;2.718;2022-09-09T15:12:15;21.10;99.90
23405;DHT22;11875;49.356;2.718;2022-09-09T15:14:44;21.10;99.90
23405;DHT22;11875;49.356;2.718;2022-09-09T15:17:10;21.10;99.90
23405;DHT22;11875;49.356;2.718;2022-09-09T15:19:36;21.00;99.90
23405;DHT22;11875;49.356;2.718;2022-09-09T15:22:02;21.00;99.90
23405;DHT22;11875;49.356;2.718;2022-09-09T15:24:28;21.00;99.90
23405;DHT22;11875;49.356;2.718;2022-09-09T15:26:54;21.00;99.90
23405;DHT22;11875;49.356;2.718;2022-09-09T15:29:19;21.10;99.90
23405;DHT22;11875;49.356;2.718;2022-09-09T15:31:45;21.20;99.90
23405;DHT22;11875;49.356;2.718;2022-09-09T15:34:12;21.10;99.90
23405;DHT22;11875;49.356;2.718;2022-09-09T15:36:45;21.20;99.90
23405;DHT22;11875;49.356;2.718;2022-09-09T15:39:16;21.20;99.90
23405;DHT22;11875;49.356;2.718;2022-09-09T15:41:46;21.10;99.90
23405;DHT22;11875;49.356;2.718;2022-09-09T15:44:13;21.00;99.90
23405;DHT22;11875;49.356;2.718;2022-09-09T15:46:49;20.90;99.90
23405;DHT22;11875;49.356;2.718;2022-09-09T15:49:20;20.80;99.90
23405;DHT22;11875;49.356;2.718;2022-09-09T15:51:53;20.70;99.90
23405;DHT22;11875;49.356;2.718;2022-09-09T15:54:21;20.80;99.90
23405;DHT22;11875;49.356;2.718;2022-09-09T15:56:51;20.80;99.90
23405;DHT22;11875;49.356;2.718;2022-09-09T15:59:17;21.00;99.90
23405;DHT22;11875;49.356;2.718;2022-09-09T16:01:44;21.10;99.90
23405;DHT22;11875;49.356;2.718;2022-09-09T16:04:10;21.20;99.90
23405;DHT22;11875;49.356;2.718;2022-09-09T16:06:36;21.30;99.90
23405;DHT22;11875;49.356;2.718;2022-09-09T16:09:04;21.10;99.90
23405;DHT22;11875;49.356;2.718;2022-09-09T16:11:32;21.00;99.90
23405;DHT22;11875;49.356;2.718;2022-09-09T16:13:59;20.90;99.90
23405;DHT22;11875;49.356;2.718;2022-09-09T16:16:27;20.90;99.90
23405;DHT22;11875;49.356;2.718;2022-09-09T16:18:55;20.80;99.90
23405;DHT22;11875;49.356;2.718;2022-09-09T16:21:25;20.80;99.90
23405;DHT22;11875;49.356;2.718;2022-09-09T16:23:53;20.80;99.90
23405;DHT22;11875;49.356;2.718;2022-09-09T16:26:19;20.70;99.90
23405;DHT22;11875;49.356;2.718;2022-09-09T16:28:46;20.70;99.90
23405;DHT22;11875;49.356;2.718;2022-09-09T16:31:15;20.70;99.90
23405;DHT22;11875;49.356;2.718;2022-09-09T16:33:41;20.80;99.90
23405;DHT22;11875;49.356;2.718;2022-09-09T16:36:09;20.90;99.90
23405;DHT22;11875;49.356;2.718;2022-09-09T16:38:36;20.90;99.90
23405;DHT22;11875;49.356;2.718;2022-09-09T16:41:03;20.80;99.90
23405;DHT22;11875;49.356;2.718;2022-09-09T16:43:34;20.60;99.90
23405;DHT22;11875;49.356;2.718;2022-09-09T16:46:01;20.60;99.90
23405;DHT22;11875;49.356;2.718;2022-09-09T16:48:31;20.60;99.90
23405;DHT22;11875;49.356;2.718;2022-09-09T16:51:11;20.70;99.90
23405;DHT22;11875;49.356;2.718;2022-09-09T16:53:37;20.50;99.90
23405;DHT22;11875;49.356;2.718;2022-09-09T16:56:13;20.40;99.90
23405;DHT22;11875;49.356;2.718;2022-09-09T16:58:40;20.40;99.90
23405;DHT22;11875;49.356;2.718;2022-09-09T17:01:06;20.40;99.90
23405;DHT22;11875;49.356;2.718;2022-09-09T17:03:32;20.30;99.90
23405;DHT22;11875;49.356;2.718;2022-09-09T17:05:58;20.30;99.90
23405;DHT22;11875;49.356;2.718;2022-09-09T17:08:28;20.30;99.90
23405;DHT22;11875;49.356;2.718;2022-09-09T17:10:54;20.30;99.90
23405;DHT22;11875;49.356;2.718;2022-09-09T17:13:20;20.30;99.90
23405;DHT22;11875;49.356;2.718;2022-09-09T17:15:45;20.40;99.90
23405;DHT22;11875;49.356;2.718;2022-09-09T17:18:12;20.40;99.90
23405;DHT22;11875;49.356;2.718;2022-09-09T17:20:41;20.50;99.90
23405;DHT22;11875;49.356;2.718;2022-09-09T17:23:08;20.50;99.90
23405;DHT22;11875;49.356;2.718;2022-09-09T17:25:37;20.60;99.90
23405;DHT22;11875;49.356;2.718;2022-09-09T17:28:04;20.70;99.90
23405;DHT22;11875;49.356;2.718;2022-09-09T17:30:36;20.60;99.90
23405;DHT22;11875;49.356;2.718;2022-09-09T17:33:03;20.60;99.90
23405;DHT22;11875;49.356;2.718;2022-09-09T17:35:30;20.60;99.90
23405;DHT22;11875;49.356;2.718;2022-09-09T17:37:56;20.50;99.90
23405;DHT22;11875;49.356;2.718;2022-09-09T17:40:21;20.40;99.90
23405;DHT22;11875;49.356;2.718;2022-09-09T17:42:47;20.30;99.90
23405;DHT22;11875;49.356;2.718;2022-09-09T17:45:13;20.20;99.90
23405;DHT22;11875;49.356;2.718;2022-09-09T17:47:40;20.10;99.90
23405;DHT22;11875;49.356;2.718;2022-09-09T17:50:08;20.20;99.90
23405;DHT22;11875;49.356;2.718;2022-09-09T17:52:34;20.10;99.90